Grande Portogallo — IBZW — position and weather

sailwx.info

Track history (hours):
 
Tides and Currents Weather Stations Pressure Air Temp Water Temp Dewpoint Dewpoint Depression Visibility Wind Speed Wind Dir Waves Ship Positions

Grande Portogallo

Last reported at 2017-Apr-24 15:29 UTC. Time now 2017-Apr-24 15:30 UTC.
Position N 39°26' W 000°18'.

Length 176 m; draft 8.6 m.

Type: Cargo ship. MMSI: 247065500.

Date/timePositionNaut miles runAvg speedWind from/ knotsBaromVisibWave heightAir tempDewpointWater temp
2017-Apr-24 15:29N 39°26' W 000°18'0 0.0
2017-Apr-24 14:59N 39°26' W 000°18'0 0.0
2017-Apr-24 14:29N 39°26' W 000°18'0 0.0
2017-Apr-24 13:29N 39°26' W 000°18'0 0.0
2017-Apr-24 12:56N 39°26' W 000°18'0 0.0
2017-Apr-24 12:26N 39°26' W 000°18'0 0.0
2017-Apr-24 11:59N 39°26' W 000°18'0 0.0
2017-Apr-24 11:29N 39°26' W 000°18'0 0.0
2017-Apr-24 10:59N 39°26' W 000°18'0 0.0
2017-Apr-24 10:29N 39°26' W 000°18'0 0.0
2017-Apr-24 09:59N 39°26' W 000°18'0 0.0
2017-Apr-24 09:29N 39°26' W 000°18'0 0.0
2017-Apr-24 08:59N 39°26' W 000°18'0 0.0
2017-Apr-24 08:29N 39°26' W 000°18'1 2.8
2017-Apr-24 08:00N 39°25' W 000°17'5016.5
2017-Apr-24 04:56N 38°47' E 000°24'3515.4
2017-Apr-24 02:40N 38°15' E 000°05'816.9
2017-Apr-24 02:11N 38°08' W 000°01'416.9
2017-Apr-24 01:55N 38°05' W 000°04'716.9
2017-Apr-24 01:29N 37°59' W 000°10'1716.9
2017-Apr-24 00:30N 37°45' W 000°22'816.8
2017-Apr-24 00:00N 37°38' W 000°27'916.5
2017-Apr-23 23:29N 37°31' W 000°34'816.4
2017-Apr-23 22:59N 37°26' W 000°42'1016.1
2017-Apr-23 22:22N 37°20' W 000°52'21115.6
2017-Apr-23 08:49N 36°02' W 004°56'615.6
2017-Apr-23 08:26N 36°01' W 005°04'716.5
2017-Apr-23 08:00N 35°60' W 005°12'817.0
2017-Apr-23 07:30N 35°59' W 005°23'917.1
2017-Apr-23 06:59N 35°56' W 005°33'16415.9
2017-Apr-22 20:38N 36°30' W 008°53'216.1
2017-Apr-22 20:30N 36°31' W 008°55'7114.4
2017-Apr-22 15:37N 37°30' W 009°44'216.7
2017-Apr-22 15:30N 37°31' W 009°44'816.4
2017-Apr-22 15:00N 37°39' W 009°47'816.5
2017-Apr-22 14:30N 37°47' W 009°49'1716.8
2017-Apr-22 13:30N 38°04' W 009°54'816.8
2017-Apr-22 13:00N 38°12' W 009°57'917.0
2017-Apr-22 12:30N 38°20' W 009°59'816.8
2017-Apr-22 12:00N 38°28' W 010°01'816.7
2017-Apr-22 11:30N 38°36' W 010°04'816.6
2017-Apr-22 11:00N 38°45' W 010°06'816.6
2017-Apr-22 10:30N 38°53' W 010°06'816.5
2017-Apr-22 10:01N 39°01' W 010°06'816.4
2017-Apr-22 09:30N 39°09' W 010°05'816.5
2017-Apr-22 09:00N 39°18' W 010°06'1216.7
2017-Apr-22 08:17N 39°30' W 010°06'516.8
2017-Apr-22 08:00N 39°34' W 010°06'817.0
2017-Apr-22 07:30N 39°43' W 010°06'817.0
2017-Apr-22 07:00N 39°51' W 010°06'1416.9
2017-Apr-22 06:12N 40°05' W 010°06'916.9
2017-Apr-22 05:39N 40°14' W 010°06'2716.6
2017-Apr-22 04:02N 40°41' W 010°05'116.6
2017-Apr-22 03:58N 40°42' W 010°05'816.7
2017-Apr-22 03:30N 40°50' W 010°05'816.6
2017-Apr-22 03:00N 40°58' W 010°04'51115.0
2017-Apr-20 17:00N 48°54' W 005°43'9414.2
2017-Apr-20 10:23N 49°42' W 003°38'614.0
2017-Apr-20 09:58N 49°45' W 003°31'714.2
2017-Apr-20 09:30N 49°48' W 003°22'714.5
2017-Apr-20 09:00N 49°52' W 003°12'714.8
2017-Apr-20 08:30N 49°56' W 003°02'10114.1
2017-Apr-20 01:18N 50°23' W 000°30'412.9
2017-Apr-20 01:00N 50°24' W 000°24'713.2
2017-Apr-20 00:30N 50°26' W 000°14'713.5
2017-Apr-20 00:00N 50°27' W 000°04'713.9
2017-Apr-19 23:30N 50°29' E 000°07'714.2
2017-Apr-19 23:01N 50°31' E 000°18'714.4
2017-Apr-19 22:30N 50°34' E 000°28'714.6
2017-Apr-19 22:00N 50°38' E 000°37'814.8
2017-Apr-19 21:28N 50°43' E 000°48'1614.6
2017-Apr-19 20:23N 50°53' E 001°07'514.3
2017-Apr-19 20:00N 50°56' E 001°13'714.0
2017-Apr-19 19:30N 51°01' E 001°22'713.5
2017-Apr-19 19:00N 51°05' E 001°30'713.4
2017-Apr-19 18:30N 51°09' E 001°38'713.1
2017-Apr-19 18:00N 51°14' E 001°46'713.4
2017-Apr-19 17:30N 51°20' E 001°50'713.6
2017-Apr-19 17:00N 51°26' E 001°55'714.2
2017-Apr-19 16:31N 51°31' E 002°03'814.2
2017-Apr-19 15:58N 51°37' E 002°11'9614.6
2017-Apr-19 09:23N 52°52' E 003°49'2313.3
2017-Apr-19 07:41N 53°07' E 004°18'413.7
2017-Apr-19 07:24N 53°09' E 004°22'12913.5
2017-Apr-18 21:54N 54°01' E 007°40'614.8
2017-Apr-18 21:31N 54°01' E 007°50'815.3
2017-Apr-18 21:00N 54°01' E 008°03'714.7
2017-Apr-18 20:31N 54°00' E 008°16'1019.9
2017-Apr-18 20:00N 53°58' E 008°33'918.4
2017-Apr-18 19:30N 53°52' E 008°44'715.0
2017-Apr-18 19:01N 53°51' E 008°56'816.0
2017-Apr-18 18:31N 53°53' E 009°10'612.4
2017-Apr-18 18:00N 53°51' E 009°20'714.2
2017-Apr-18 17:30N 53°45' E 009°25'612.8
2017-Apr-18 17:01N 53°39' E 009°31'612.9
2017-Apr-18 16:30N 53°35' E 009°38'510.4
2017-Apr-18 16:00N 53°33' E 009°47'5 9.2
2017-Apr-18 15:30N 53°33' E 009°55'3 6.2
2017-Apr-18 15:01N 53°32' E 009°60'0 0.0
2017-Apr-18 14:28N 53°32' E 009°60'0 0.0
2017-Apr-18 13:28N 53°32' E 009°60'0 0.0
2017-Apr-18 12:58N 53°32' E 009°60'0 0.0
2017-Apr-18 12:28N 53°32' E 009°60'0 0.0
2017-Apr-18 11:58N 53°32' E 009°60'0 0.0
2017-Apr-18 11:28N 53°32' E 009°60'0 0.0
2017-Apr-18 10:58N 53°32' E 009°60'0 0.0
2017-Apr-18 10:28N 53°32' E 009°60'0 0.0
2017-Apr-18 09:58N 53°32' E 009°60'0 0.0
2017-Apr-18 09:28N 53°32' E 009°60'0 0.0
2017-Apr-18 08:58N 53°32' E 009°60'0 0.0
2017-Apr-18 08:28N 53°32' E 009°60'0 0.0
2017-Apr-18 07:58N 53°32' E 009°60'0 0.0
2017-Apr-18 07:28N 53°32' E 009°60'0 0.0
2017-Apr-18 06:58N 53°32' E 009°60'0 0.0
2017-Apr-18 06:28N 53°32' E 009°60'0 0.0
2017-Apr-18 05:58N 53°32' E 009°60'0 0.0
2017-Apr-18 05:28N 53°32' E 009°60'0 0.0
2017-Apr-18 04:58N 53°32' E 009°60'0 0.0
2017-Apr-18 04:28N 53°32' E 009°60'0 0.0
2017-Apr-18 03:58N 53°32' E 009°60'0 0.0
2017-Apr-18 03:28N 53°32' E 009°60'0 0.0
2017-Apr-18 02:58N 53°32' E 009°60'0 0.0
2017-Apr-18 02:28N 53°32' E 009°60'0 0.0
2017-Apr-18 01:58N 53°32' E 009°60'0 0.0
2017-Apr-18 01:28N 53°32' E 009°60'0 0.0
2017-Apr-18 00:58N 53°32' E 009°60'0 0.0
2017-Apr-18 00:28N 53°32' E 009°60'0 0.0
2017-Apr-17 23:58N 53°32' E 009°60'0 0.0
2017-Apr-17 23:28N 53°32' E 009°60'0 0.0
2017-Apr-17 22:58N 53°32' E 009°60'0 0.0
2017-Apr-17 22:28N 53°32' E 009°60'0 0.0
2017-Apr-17 21:58N 53°32' E 009°60'0 0.0
2017-Apr-17 21:28N 53°32' E 009°60'0 0.0
2017-Apr-17 20:58N 53°32' E 009°60'0 0.5
2017-Apr-17 20:30N 53°32' E 009°59'3 6.9
2017-Apr-17 20:00N 53°32' E 009°54'4 7.6
2017-Apr-17 19:30N 53°33' E 009°47'4 9.0
2017-Apr-17 19:01N 53°34' E 009°40'5 9.3
2017-Apr-17 18:30N 53°37' E 009°34'5 9.6
2017-Apr-17 18:00N 53°41' E 009°30'510.8
2017-Apr-17 17:31N 53°45' E 009°24'713.0
2017-Apr-17 17:00N 53°51' E 009°19'5 9.4
2017-Apr-17 16:30N 53°53' E 009°12'510.5
2017-Apr-17 16:00N 53°52' E 009°03'510.7
2017-Apr-17 15:30N 53°50' E 008°54'510.8
2017-Apr-17 15:01N 53°51' E 008°45'612.4
2017-Apr-17 14:30N 53°56' E 008°39'1313.0
2017-Apr-17 13:30N 53°60' E 008°18'612.9
2017-Apr-17 13:00N 53°59' E 008°07'106 6.4
2017-Apr-16 20:28N 53°32' E 005°14'816.2
2017-Apr-16 19:59N 53°29' E 005°01'816.2
2017-Apr-16 19:30N 53°26' E 004°49'815.5
2017-Apr-16 19:00N 53°21' E 004°40'816.0
2017-Apr-16 18:30N 53°13' E 004°33'815.8
2017-Apr-16 18:00N 53°07' E 004°26'815.5
2017-Apr-16 17:30N 52°60' E 004°20'815.3
2017-Apr-16 17:00N 52°53' E 004°14'815.1
2017-Apr-16 16:30N 52°47' E 004°07'815.1
2017-Apr-16 16:00N 52°41' E 003°59'714.8
2017-Apr-16 15:30N 52°36' E 003°51'5213.5
2017-Apr-16 11:40N 51°48' E 003°16'411.1
2017-Apr-16 11:19N 51°45' E 003°14'2 7.4
2017-Apr-16 11:00N 51°43' E 003°15'815.7
2017-Apr-16 10:30N 51°35' E 003°10'816.4
2017-Apr-16 10:00N 51°29' E 003°03'510.5
2017-Apr-16 09:30N 51°24' E 003°07'918.9
2017-Apr-16 09:00N 51°25' E 003°22'816.9
2017-Apr-16 08:30N 51°26' E 003°36'5 9.5
2017-Apr-16 08:00N 51°24' E 003°43'815.7
2017-Apr-16 07:30N 51°22' E 003°55'5 9.8
2017-Apr-16 07:00N 51°24' E 004°02'612.9
2017-Apr-16 06:30N 51°23' E 004°13'611.7
2017-Apr-16 06:00N 51°18' E 004°17'2 4.7
2017-Apr-16 05:30N 51°16' E 004°17'0 0.3
2017-Apr-16 05:00N 51°16' E 004°17'1 2.2
2017-Apr-16 04:30N 51°16' E 004°15'2 3.1
2017-Apr-16 04:01N 51°16' E 004°13'0 0.0
2017-Apr-16 03:21N 51°16' E 004°13'0 0.0
2017-Apr-16 02:57N 51°16' E 004°13'0 0.0
2017-Apr-16 02:30N 51°16' E 004°13'0 0.0
2017-Apr-16 02:00N 51°16' E 004°13'0 0.0
2017-Apr-16 01:27N 51°16' E 004°13'0 0.0
2017-Apr-16 01:00N 51°16' E 004°13'0 0.0
2017-Apr-16 00:21N 51°16' E 004°13'0 0.0
2017-Apr-15 23:57N 51°16' E 004°13'0 0.0
2017-Apr-15 23:30N 51°16' E 004°13'0 0.0
2017-Apr-15 22:57N 51°16' E 004°13'0 0.0
2017-Apr-15 22:30N 51°16' E 004°13'0 0.0
2017-Apr-15 22:00N 51°16' E 004°13'0 0.0
2017-Apr-15 21:30N 51°16' E 004°13'0 0.0
2017-Apr-15 20:57N 51°16' E 004°13'0 0.0
2017-Apr-15 20:30N 51°16' E 004°13'0 0.0
2017-Apr-15 20:00N 51°16' E 004°13'0 0.0
2017-Apr-15 19:30N 51°16' E 004°13'0 0.0
2017-Apr-15 19:00N 51°16' E 004°13'0 0.0
2017-Apr-15 18:27N 51°16' E 004°13'0 0.0
2017-Apr-15 18:00N 51°16' E 004°13'0 0.0
2017-Apr-15 17:21N 51°16' E 004°13'0 0.0
2017-Apr-15 17:00N 51°16' E 004°13'0 0.0
2017-Apr-15 16:30N 51°16' E 004°13'0 0.0
2017-Apr-15 15:54N 51°16' E 004°13'0 0.0
2017-Apr-15 15:27N 51°16' E 004°13'0 0.0
2017-Apr-15 15:00N 51°16' E 004°13'0 0.0
2017-Apr-15 14:30N 51°16' E 004°13'0 0.0
2017-Apr-15 13:30N 51°16' E 004°13'0 0.0
2017-Apr-15 13:00N 51°16' E 004°13'0 0.0
2017-Apr-15 12:30N 51°16' E 004°13'0 0.0
2017-Apr-15 11:57N 51°16' E 004°13'0 0.0
2017-Apr-15 11:30N 51°16' E 004°13'0 0.0
2017-Apr-15 11:00N 51°16' E 004°13'0 0.0
2017-Apr-15 10:30N 51°16' E 004°13'0 0.0
2017-Apr-15 10:00N 51°16' E 004°13'0 0.0
2017-Apr-15 09:30N 51°16' E 004°13'0 0.0
2017-Apr-15 09:00N 51°16' E 004°13'0 0.0
2017-Apr-15 08:24N 51°16' E 004°13'0 0.0
2017-Apr-15 08:00N 51°16' E 004°13'0 0.0
2017-Apr-15 07:30N 51°16' E 004°13'0 0.0
2017-Apr-15 07:00N 51°16' E 004°13'0 0.0
2017-Apr-15 06:30N 51°16' E 004°13'0 0.0
2017-Apr-15 06:00N 51°16' E 004°13'0 0.0
2017-Apr-15 05:30N 51°16' E 004°13'0 0.0
2017-Apr-15 05:00N 51°16' E 004°13'0 0.0
2017-Apr-15 04:30N 51°16' E 004°13'0 0.0
2017-Apr-15 03:57N 51°16' E 004°13'0 0.0
2017-Apr-15 03:30N 51°16' E 004°13'0 0.0
2017-Apr-15 03:00N 51°16' E 004°13'0 0.0
2017-Apr-15 02:30N 51°16' E 004°13'0 0.0
2017-Apr-15 02:00N 51°16' E 004°13'0 0.0
2017-Apr-15 01:30N 51°16' E 004°13'0 0.0
2017-Apr-15 01:00N 51°16' E 004°13'0 0.0
2017-Apr-15 00:27N 51°16' E 004°13'0 0.0
2017-Apr-15 00:00N 51°16' E 004°13'0 0.0
2017-Apr-14 23:30N 51°16' E 004°13'0 0.0
2017-Apr-14 23:00N 51°16' E 004°13'0 0.0
2017-Apr-14 22:30N 51°16' E 004°13'0 0.0
2017-Apr-14 22:00N 51°16' E 004°13'0 0.0
2017-Apr-14 21:30N 51°16' E 004°13'0 0.0
2017-Apr-14 20:54N 51°16' E 004°13'0 0.0
2017-Apr-14 20:30N 51°16' E 004°13'0 0.0
2017-Apr-14 20:00N 51°16' E 004°13'0 0.0
2017-Apr-14 19:30N 51°16' E 004°13'0 0.0
2017-Apr-14 19:00N 51°16' E 004°13'0 0.0
2017-Apr-14 18:30N 51°16' E 004°13'0 0.0
2017-Apr-14 18:00N 51°16' E 004°13'0 0.0
2017-Apr-14 17:30N 51°16' E 004°13'0 0.0
2017-Apr-14 16:57N 51°16' E 004°13'0 0.0
2017-Apr-14 16:30N 51°16' E 004°13'0 0.0
2017-Apr-14 16:00N 51°16' E 004°13'0 0.0
2017-Apr-14 15:30N 51°16' E 004°13'0 0.0
2017-Apr-14 15:00N 51°16' E 004°13'  
Track history (hours):
 
Tides and Currents Weather Stations Pressure Air Temp Water Temp Dewpoint Dewpoint Depression Visibility Wind Speed Wind Dir Waves Ship Positions

Grande Portogallo

Last reported at 2017-Apr-24 15:29 UTC. Time now 2017-Apr-24 15:30 UTC.
Position N 39°26' W 000°18'.

Length 176 m; draft 8.6 m.

Type: Cargo ship. MMSI: 247065500.

Date/timePositionNaut miles runAvg speedWind from/ knotsBaromVisibWave heightAir tempDewpointWater temp
2017-Apr-24 15:29N 39°26' W 000°18'0 0.0
2017-Apr-24 14:59N 39°26' W 000°18'0 0.0
2017-Apr-24 14:29N 39°26' W 000°18'0 0.0
2017-Apr-24 13:29N 39°26' W 000°18'0 0.0
2017-Apr-24 12:56N 39°26' W 000°18'0 0.0
2017-Apr-24 12:26N 39°26' W 000°18'0 0.0
2017-Apr-24 11:59N 39°26' W 000°18'0 0.0
2017-Apr-24 11:29N 39°26' W 000°18'0 0.0
2017-Apr-24 10:59N 39°26' W 000°18'0 0.0
2017-Apr-24 10:29N 39°26' W 000°18'0 0.0
2017-Apr-24 09:59N 39°26' W 000°18'0 0.0
2017-Apr-24 09:29N 39°26' W 000°18'0 0.0
2017-Apr-24 08:59N 39°26' W 000°18'0 0.0
2017-Apr-24 08:29N 39°26' W 000°18'1 2.8
2017-Apr-24 08:00N 39°25' W 000°17'5016.5
2017-Apr-24 04:56N 38°47' E 000°24'3515.4
2017-Apr-24 02:40N 38°15' E 000°05'816.9
2017-Apr-24 02:11N 38°08' W 000°01'416.9
2017-Apr-24 01:55N 38°05' W 000°04'716.9
2017-Apr-24 01:29N 37°59' W 000°10'1716.9
2017-Apr-24 00:30N 37°45' W 000°22'816.8
2017-Apr-24 00:00N 37°38' W 000°27'916.5
2017-Apr-23 23:29N 37°31' W 000°34'816.4
2017-Apr-23 22:59N 37°26' W 000°42'1016.1
2017-Apr-23 22:22N 37°20' W 000°52'21115.6
2017-Apr-23 08:49N 36°02' W 004°56'615.6
2017-Apr-23 08:26N 36°01' W 005°04'716.5
2017-Apr-23 08:00N 35°60' W 005°12'817.0
2017-Apr-23 07:30N 35°59' W 005°23'917.1
2017-Apr-23 06:59N 35°56' W 005°33'16415.9
2017-Apr-22 20:38N 36°30' W 008°53'216.1
2017-Apr-22 20:30N 36°31' W 008°55'7114.4
2017-Apr-22 15:37N 37°30' W 009°44'216.7
2017-Apr-22 15:30N 37°31' W 009°44'816.4
2017-Apr-22 15:00N 37°39' W 009°47'816.5
2017-Apr-22 14:30N 37°47' W 009°49'1716.8
2017-Apr-22 13:30N 38°04' W 009°54'816.8
2017-Apr-22 13:00N 38°12' W 009°57'917.0
2017-Apr-22 12:30N 38°20' W 009°59'816.8
2017-Apr-22 12:00N 38°28' W 010°01'816.7
2017-Apr-22 11:30N 38°36' W 010°04'816.6
2017-Apr-22 11:00N 38°45' W 010°06'816.6
2017-Apr-22 10:30N 38°53' W 010°06'816.5
2017-Apr-22 10:01N 39°01' W 010°06'816.4
2017-Apr-22 09:30N 39°09' W 010°05'816.5
2017-Apr-22 09:00N 39°18' W 010°06'1216.7
2017-Apr-22 08:17N 39°30' W 010°06'516.8
2017-Apr-22 08:00N 39°34' W 010°06'817.0
2017-Apr-22 07:30N 39°43' W 010°06'817.0
2017-Apr-22 07:00N 39°51' W 010°06'1416.9
2017-Apr-22 06:12N 40°05' W 010°06'916.9
2017-Apr-22 05:39N 40°14' W 010°06'2716.6
2017-Apr-22 04:02N 40°41' W 010°05'116.6
2017-Apr-22 03:58N 40°42' W 010°05'816.7
2017-Apr-22 03:30N 40°50' W 010°05'816.6
2017-Apr-22 03:00N 40°58' W 010°04'51115.0
2017-Apr-20 17:00N 48°54' W 005°43'9414.2
2017-Apr-20 10:23N 49°42' W 003°38'614.0
2017-Apr-20 09:58N 49°45' W 003°31'714.2
2017-Apr-20 09:30N 49°48' W 003°22'714.5
2017-Apr-20 09:00N 49°52' W 003°12'714.8
2017-Apr-20 08:30N 49°56' W 003°02'10114.1
2017-Apr-20 01:18N 50°23' W 000°30'412.9
2017-Apr-20 01:00N 50°24' W 000°24'713.2
2017-Apr-20 00:30N 50°26' W 000°14'713.5
2017-Apr-20 00:00N 50°27' W 000°04'713.9
2017-Apr-19 23:30N 50°29' E 000°07'714.2
2017-Apr-19 23:01N 50°31' E 000°18'714.4
2017-Apr-19 22:30N 50°34' E 000°28'714.6
2017-Apr-19 22:00N 50°38' E 000°37'814.8
2017-Apr-19 21:28N 50°43' E 000°48'1614.6
2017-Apr-19 20:23N 50°53' E 001°07'514.3
2017-Apr-19 20:00N 50°56' E 001°13'714.0
2017-Apr-19 19:30N 51°01' E 001°22'713.5
2017-Apr-19 19:00N 51°05' E 001°30'713.4
2017-Apr-19 18:30N 51°09' E 001°38'713.1
2017-Apr-19 18:00N 51°14' E 001°46'713.4
2017-Apr-19 17:30N 51°20' E 001°50'713.6
2017-Apr-19 17:00N 51°26' E 001°55'714.2
2017-Apr-19 16:31N 51°31' E 002°03'814.2
2017-Apr-19 15:58N 51°37' E 002°11'9614.6
2017-Apr-19 09:23N 52°52' E 003°49'2313.3
2017-Apr-19 07:41N 53°07' E 004°18'413.7
2017-Apr-19 07:24N 53°09' E 004°22'12913.5
2017-Apr-18 21:54N 54°01' E 007°40'614.8
2017-Apr-18 21:31N 54°01' E 007°50'815.3
2017-Apr-18 21:00N 54°01' E 008°03'714.7
2017-Apr-18 20:31N 54°00' E 008°16'1019.9
2017-Apr-18 20:00N 53°58' E 008°33'918.4
2017-Apr-18 19:30N 53°52' E 008°44'715.0
2017-Apr-18 19:01N 53°51' E 008°56'816.0
2017-Apr-18 18:31N 53°53' E 009°10'612.4
2017-Apr-18 18:00N 53°51' E 009°20'714.2
2017-Apr-18 17:30N 53°45' E 009°25'612.8
2017-Apr-18 17:01N 53°39' E 009°31'612.9
2017-Apr-18 16:30N 53°35' E 009°38'510.4
2017-Apr-18 16:00N 53°33' E 009°47'5 9.2
2017-Apr-18 15:30N 53°33' E 009°55'3 6.2
2017-Apr-18 15:01N 53°32' E 009°60'0 0.0
2017-Apr-18 14:28N 53°32' E 009°60'0 0.0
2017-Apr-18 13:28N 53°32' E 009°60'0 0.0
2017-Apr-18 12:58N 53°32' E 009°60'0 0.0
2017-Apr-18 12:28N 53°32' E 009°60'0 0.0
2017-Apr-18 11:58N 53°32' E 009°60'0 0.0
2017-Apr-18 11:28N 53°32' E 009°60'0 0.0
2017-Apr-18 10:58N 53°32' E 009°60'0 0.0
2017-Apr-18 10:28N 53°32' E 009°60'0 0.0
2017-Apr-18 09:58N 53°32' E 009°60'0 0.0
2017-Apr-18 09:28N 53°32' E 009°60'0 0.0
2017-Apr-18 08:58N 53°32' E 009°60'0 0.0
2017-Apr-18 08:28N 53°32' E 009°60'0 0.0
2017-Apr-18 07:58N 53°32' E 009°60'0 0.0
2017-Apr-18 07:28N 53°32' E 009°60'0 0.0
2017-Apr-18 06:58N 53°32' E 009°60'0 0.0
2017-Apr-18 06:28N 53°32' E 009°60'0 0.0
2017-Apr-18 05:58N 53°32' E 009°60'0 0.0
2017-Apr-18 05:28N 53°32' E 009°60'0 0.0
2017-Apr-18 04:58N 53°32' E 009°60'0 0.0
2017-Apr-18 04:28N 53°32' E 009°60'0 0.0
2017-Apr-18 03:58N 53°32' E 009°60'0 0.0
2017-Apr-18 03:28N 53°32' E 009°60'0 0.0
2017-Apr-18 02:58N 53°32' E 009°60'0 0.0
2017-Apr-18 02:28N 53°32' E 009°60'0 0.0
2017-Apr-18 01:58N 53°32' E 009°60'0 0.0
2017-Apr-18 01:28N 53°32' E 009°60'0 0.0
2017-Apr-18 00:58N 53°32' E 009°60'0 0.0
2017-Apr-18 00:28N 53°32' E 009°60'0 0.0
2017-Apr-17 23:58N 53°32' E 009°60'0 0.0
2017-Apr-17 23:28N 53°32' E 009°60'0 0.0
2017-Apr-17 22:58N 53°32' E 009°60'0 0.0
2017-Apr-17 22:28N 53°32' E 009°60'0 0.0
2017-Apr-17 21:58N 53°32' E 009°60'0 0.0
2017-Apr-17 21:28N 53°32' E 009°60'0 0.0
2017-Apr-17 20:58N 53°32' E 009°60'0 0.5
2017-Apr-17 20:30N 53°32' E 009°59'3 6.9
2017-Apr-17 20:00N 53°32' E 009°54'4 7.6
2017-Apr-17 19:30N 53°33' E 009°47'4 9.0
2017-Apr-17 19:01N 53°34' E 009°40'5 9.3
2017-Apr-17 18:30N 53°37' E 009°34'5 9.6
2017-Apr-17 18:00N 53°41' E 009°30'510.8
2017-Apr-17 17:31N 53°45' E 009°24'713.0
2017-Apr-17 17:00N 53°51' E 009°19'5 9.4
2017-Apr-17 16:30N 53°53' E 009°12'510.5
2017-Apr-17 16:00N 53°52' E 009°03'510.7
2017-Apr-17 15:30N 53°50' E 008°54'510.8
2017-Apr-17 15:01N 53°51' E 008°45'612.4
2017-Apr-17 14:30N 53°56' E 008°39'1313.0
2017-Apr-17 13:30N 53°60' E 008°18'612.9
2017-Apr-17 13:00N 53°59' E 008°07'106 6.4
2017-Apr-16 20:28N 53°32' E 005°14'816.2
2017-Apr-16 19:59N 53°29' E 005°01'816.2
2017-Apr-16 19:30N 53°26' E 004°49'815.5
2017-Apr-16 19:00N 53°21' E 004°40'816.0
2017-Apr-16 18:30N 53°13' E 004°33'815.8
2017-Apr-16 18:00N 53°07' E 004°26'815.5
2017-Apr-16 17:30N 52°60' E 004°20'815.3
2017-Apr-16 17:00N 52°53' E 004°14'815.1
2017-Apr-16 16:30N 52°47' E 004°07'815.1
2017-Apr-16 16:00N 52°41' E 003°59'714.8
2017-Apr-16 15:30N 52°36' E 003°51'5213.5
2017-Apr-16 11:40N 51°48' E 003°16'411.1
2017-Apr-16 11:19N 51°45' E 003°14'2 7.4
2017-Apr-16 11:00N 51°43' E 003°15'815.7
2017-Apr-16 10:30N 51°35' E 003°10'816.4
2017-Apr-16 10:00N 51°29' E 003°03'510.5
2017-Apr-16 09:30N 51°24' E 003°07'918.9
2017-Apr-16 09:00N 51°25' E 003°22'816.9
2017-Apr-16 08:30N 51°26' E 003°36'5 9.5
2017-Apr-16 08:00N 51°24' E 003°43'815.7
2017-Apr-16 07:30N 51°22' E 003°55'5 9.8
2017-Apr-16 07:00N 51°24' E 004°02'612.9
2017-Apr-16 06:30N 51°23' E 004°13'611.7
2017-Apr-16 06:00N 51°18' E 004°17'2 4.7
2017-Apr-16 05:30N 51°16' E 004°17'0 0.3
2017-Apr-16 05:00N 51°16' E 004°17'1 2.2
2017-Apr-16 04:30N 51°16' E 004°15'2 3.1
2017-Apr-16 04:01N 51°16' E 004°13'0 0.0
2017-Apr-16 03:21N 51°16' E 004°13'0 0.0
2017-Apr-16 02:57N 51°16' E 004°13'0 0.0
2017-Apr-16 02:30N 51°16' E 004°13'0 0.0
2017-Apr-16 02:00N 51°16' E 004°13'0 0.0
2017-Apr-16 01:27N 51°16' E 004°13'0 0.0
2017-Apr-16 01:00N 51°16' E 004°13'0 0.0
2017-Apr-16 00:21N 51°16' E 004°13'0 0.0
2017-Apr-15 23:57N 51°16' E 004°13'0 0.0
2017-Apr-15 23:30N 51°16' E 004°13'0 0.0
2017-Apr-15 22:57N 51°16' E 004°13'0 0.0
2017-Apr-15 22:30N 51°16' E 004°13'0 0.0
2017-Apr-15 22:00N 51°16' E 004°13'0 0.0
2017-Apr-15 21:30N 51°16' E 004°13'0 0.0
2017-Apr-15 20:57N 51°16' E 004°13'0 0.0
2017-Apr-15 20:30N 51°16' E 004°13'0 0.0
2017-Apr-15 20:00N 51°16' E 004°13'0 0.0
2017-Apr-15 19:30N 51°16' E 004°13'0 0.0
2017-Apr-15 19:00N 51°16' E 004°13'0 0.0
2017-Apr-15 18:27N 51°16' E 004°13'0 0.0
2017-Apr-15 18:00N 51°16' E 004°13'0 0.0
2017-Apr-15 17:21N 51°16' E 004°13'0 0.0
2017-Apr-15 17:00N 51°16' E 004°13'0 0.0
2017-Apr-15 16:30N 51°16' E 004°13'0 0.0
2017-Apr-15 15:54N 51°16' E 004°13'0 0.0
2017-Apr-15 15:27N 51°16' E 004°13'0 0.0
2017-Apr-15 15:00N 51°16' E 004°13'0 0.0
2017-Apr-15 14:30N 51°16' E 004°13'0 0.0
2017-Apr-15 13:30N 51°16' E 004°13'0 0.0
2017-Apr-15 13:00N 51°16' E 004°13'0 0.0
2017-Apr-15 12:30N 51°16' E 004°13'0 0.0
2017-Apr-15 11:57N 51°16' E 004°13'0 0.0
2017-Apr-15 11:30N 51°16' E 004°13'0 0.0
2017-Apr-15 11:00N 51°16' E 004°13'0 0.0
2017-Apr-15 10:30N 51°16' E 004°13'0 0.0
2017-Apr-15 10:00N 51°16' E 004°13'0 0.0
2017-Apr-15 09:30N 51°16' E 004°13'0 0.0
2017-Apr-15 09:00N 51°16' E 004°13'0 0.0
2017-Apr-15 08:24N 51°16' E 004°13'0 0.0
2017-Apr-15 08:00N 51°16' E 004°13'0 0.0
2017-Apr-15 07:30N 51°16' E 004°13'0 0.0
2017-Apr-15 07:00N 51°16' E 004°13'0 0.0
2017-Apr-15 06:30N 51°16' E 004°13'0 0.0
2017-Apr-15 06:00N 51°16' E 004°13'0 0.0
2017-Apr-15 05:30N 51°16' E 004°13'0 0.0
2017-Apr-15 05:00N 51°16' E 004°13'0 0.0
2017-Apr-15 04:30N 51°16' E 004°13'0 0.0
2017-Apr-15 03:57N 51°16' E 004°13'0 0.0
2017-Apr-15 03:30N 51°16' E 004°13'0 0.0
2017-Apr-15 03:00N 51°16' E 004°13'0 0.0
2017-Apr-15 02:30N 51°16' E 004°13'0 0.0
2017-Apr-15 02:00N 51°16' E 004°13'0 0.0
2017-Apr-15 01:30N 51°16' E 004°13'0 0.0
2017-Apr-15 01:00N 51°16' E 004°13'0 0.0
2017-Apr-15 00:27N 51°16' E 004°13'0 0.0
2017-Apr-15 00:00N 51°16' E 004°13'0 0.0
2017-Apr-14 23:30N 51°16' E 004°13'0 0.0
2017-Apr-14 23:00N 51°16' E 004°13'0 0.0
2017-Apr-14 22:30N 51°16' E 004°13'0 0.0
2017-Apr-14 22:00N 51°16' E 004°13'0 0.0
2017-Apr-14 21:30N 51°16' E 004°13'0 0.0
2017-Apr-14 20:54N 51°16' E 004°13'0 0.0
2017-Apr-14 20:30N 51°16' E 004°13'0 0.0
2017-Apr-14 20:00N 51°16' E 004°13'0 0.0
2017-Apr-14 19:30N 51°16' E 004°13'0 0.0
2017-Apr-14 19:00N 51°16' E 004°13'0 0.0
2017-Apr-14 18:30N 51°16' E 004°13'0 0.0
2017-Apr-14 18:00N 51°16' E 004°13'0 0.0
2017-Apr-14 17:30N 51°16' E 004°13'0 0.0
2017-Apr-14 16:57N 51°16' E 004°13'0 0.0
2017-Apr-14 16:30N 51°16' E 004°13'0 0.0
2017-Apr-14 16:00N 51°16' E 004°13'0 0.0
2017-Apr-14 15:30N 51°16' E 004°13'0 0.0
2017-Apr-14 15:00N 51°16' E 004°13'  

Dump ship's entire track history